Latest Weather Observations for Lucinda

IDQ60801

Issued at 8:51 pm EST Thursday 17 January 2019 (issued every 10 minutes, with the page automatically refreshed every 10 minutes)

About weather observations | Map of weather stations | Latest weather observations for QLD | Other Formats
Station Details ID: 032141 Name: LUCINDA POINT Lat: -18.52 Lon: 146.39 Height: 10.0 m
Data from the previous 72 hours. | See also: Recent months at Lucinda
Date/Time
EST
Temp
°C
App
Temp
°C
Dew
Point
°C
Rel
Hum
%
Delta-T
°C
Wind Press
QNH
hPa
Press
MSL
hPa
Rain since
9am
mm
Dir  Spd
km/h
Gust
km/h
Spd
kts
Gust
kts
17/08:30pm 27.5 28.3 20.6 66 4.5 SE 17 30 9 16 1010.5 1010.4 0.0
17/08:00pm 27.5 28.5 21.1 68 4.2 ESE 17 30 9 16 1010.3 1010.2 0.0
17/07:30pm 27.4 28.6 21.4 70 4.0 SE 17 26 9 14 1009.9 1009.8 0.0
17/07:00pm 27.4 28.8 21.0 68 4.2 ESE 15 24 8 13 1009.5 1009.4 0.0
17/06:30pm 27.6 27.9 19.7 62 5.1 SE 17 28 9 15 1009.1 1009.0 0.0
17/06:00pm 28.1 29.4 20.1 62 5.2 SE 13 24 7 13 1008.6 1008.5 0.0
17/05:30pm 28.1 29.2 19.6 60 5.5 SE 13 22 7 12 1008.2 1008.1 0.0
17/05:00pm 27.7 28.1 19.8 62 5.2 SE 17 26 9 14 1008.1 1008.0 0.0
17/04:30pm 28.4 29.3 19.3 57 5.9 SE 13 22 7 12 1007.9 1007.8 0.0
17/04:00pm 29.2 30.5 20.1 58 6.0 E 13 24 7 13 1007.9 1007.8 0.0
17/03:30pm 28.9 30.1 20.6 61 5.5 SE 15 22 8 12 1008.1 1008.0 0.0
17/03:00pm 29.6 31.6 20.7 58 5.9 ESE 11 19 6 10 1008.6 1008.5 0.0
17/02:30pm 29.2 30.7 20.6 59 5.7 ESE 13 24 7 13 1009.0 1008.9 0.0
17/02:00pm 28.7 29.9 20.7 62 5.3 E 15 20 8 11 1009.2 1009.1 0.0
17/01:30pm 29.0 30.8 21.2 62 5.2 E 13 17 7 9 1009.6 1009.5 0.0
17/01:00pm 28.1 29.0 20.1 62 5.2 ENE 15 20 8 11 1010.0 1009.9 0.0
17/12:30pm 28.3 28.8 20.1 61 5.4 ENE 17 24 9 13 1010.5 1010.4 0.0
17/12:00pm 27.6 28.3 21.2 68 4.3 NNE 19 24 10 13 1010.6 1010.5 0.0
17/11:30am 28.4 29.1 21.2 65 4.8 ENE 19 22 10 12 1011.0 1010.9 0.0
17/11:00am 28.1 28.5 20.9 65 4.8 E 20 26 11 14 1011.1 1011.0 0.0
17/10:30am 28.3 28.3 20.1 61 5.4 ESE 20 30 11 16 1011.2 1011.1 0.0
17/10:00am 27.9 27.7 20.5 64 4.9 E 22 30 12 16 1011.2 1011.1 0.0
17/09:30am 27.8 26.9 19.8 61 5.2 E 24 30 13 16 1011.0 1010.9 0.0
17/09:00am 28.1 27.7 20.1 62 5.2 ESE 22 32 12 17 1010.7 1010.6 0.0
17/08:30am 27.9 27.8 19.9 61 5.2 ESE 20 28 11 15 1010.6 1010.5 0.0
17/08:00am 28.0 27.9 20.0 61 5.2 ESE 20 30 11 16 1010.5 1010.4 0.0
17/07:30am 27.5 27.2 20.3 65 4.7 ESE 22 32 12 17 1010.2 1010.1 0.0
17/07:00am 27.3 28.3 21.1 69 4.1 ESE 17 24 9 13 1010.2 1010.1 0.0
17/06:30am 27.1 29.3 21.2 70 3.9 ESE 11 19 6 10 1009.8 1009.7 0.0
17/06:00am 26.9 29.1 21.2 71 3.8 SE 11 17 6 9 1009.5 1009.4 0.0
17/05:30am 26.9 28.7 21.2 71 3.8 ESE 13 19 7 10 1009.2 1009.1 0.0
17/05:00am 26.8 27.9 21.3 72 3.7 ESE 17 24 9 13 1008.9 1008.8 0.0
17/04:30am 26.6 27.6 21.1 72 3.6 ENE 17 22 9 12 1008.7 1008.6 0.0
17/04:00am 26.7 29.8 21.5 73 3.5 ESE 7 13 4 7 1008.7 1008.6 0.0
17/03:30am 26.6 29.4 21.6 74 3.3 SE 9 13 5 7 1008.9 1008.8 0.0
17/03:00am 26.6 29.5 21.8 75 3.2 SE 9 17 5 9 1009.2 1009.1 0.0
17/02:30am 26.8 29.5 21.3 72 3.7 ESE 9 15 5 8 1009.4 1009.3 0.0
17/02:00am 26.9 29.4 21.0 70 3.9 SE 9 11 5 6 1009.7 1009.6 0.0
17/01:30am 27.0 29.4 20.8 69 4.1 E 9 15 5 8 1009.9 1009.8 0.0
17/01:00am 27.0 29.0 20.8 69 4.1 SE 11 17 6 9 1010.2 1010.1 0.0
17/12:30am 27.1 29.1 20.7 68 4.2 ESE 11 20 6 11 1010.7 1010.6 0.0
17/12:00am 27.3 28.7 21.1 69 4.1 ESE 15 22 8 12 1010.9 1010.8 0.0
 
Date/Time
EST
Temp
°C
App
Temp
°C
Dew
Point
°C
Rel
Hum
%
Delta-T
°C
Wind Press
QNH
hPa
Press
MSL
hPa
Rain since
9am
mm
Dir  Spd
km/h
Gust
km/h
Spd
kts
Gust
kts
16/11:30pm 27.3 27.0 20.4 66 4.5 ESE 22 32 12 17 1011.3 1011.2 0.0
16/11:00pm 27.4 27.8 21.0 68 4.2 ESE 20 30 11 16 1011.3 1011.2 0.0
16/10:30pm 27.4 27.8 21.0 68 4.2 ESE 20 28 11 15 1011.3 1011.2 0.0
16/10:00pm 27.4 27.8 20.7 67 4.4 ESE 19 30 10 16 1011.3 1011.2 0.0
16/09:30pm 27.6 27.1 20.7 66 4.6 ESE 24 32 13 17 1011.0 1010.9 0.0
16/09:00pm 27.6 29.0 21.9 71 3.8 ESE 17 28 9 15 1010.9 1010.8 0.0
16/08:30pm 27.4 28.6 21.4 70 4.0 ESE 17 24 9 13 1010.6 1010.5 0.0
16/08:00pm 27.5 28.0 21.1 68 4.2 ESE 20 28 11 15 1010.3 1010.2 0.0
16/07:30pm 27.6 27.8 21.4 69 4.1 ESE 22 28 12 15 1010.0 1009.9 0.0
16/07:00pm 27.6 28.5 21.6 70 4.0 E 19 28 10 15 1009.7 1009.6 0.0
16/06:30pm 27.8 28.6 21.8 70 4.0 ESE 20 24 11 13 1009.3 1009.2 0.0
16/06:00pm 28.0 29.6 22.2 70 3.9 ESE 17 24 9 13 1009.1 1009.0 0.0
16/05:30pm 28.5 29.2 21.5 66 4.7 ESE 20 28 11 15 1008.9 1008.8 0.0
16/05:00pm 28.7 29.9 22.2 68 4.4 ESE 19 26 10 14 1008.6 1008.5 0.0
16/04:30pm 28.6 29.8 22.1 68 4.4 ESE 19 28 10 15 1008.4 1008.3 0.0
16/04:00pm 28.6 29.7 22.3 68 4.3 ESE 20 30 11 16 1008.4 1008.3 0.0
16/03:30pm 28.6 30.6 22.3 68 4.3 ESE 15 24 8 13 1008.5 1008.4 0.0
16/03:00pm 28.8 30.6 21.8 66 4.7 SE 15 24 8 13 1008.7 1008.6 0.0
16/02:30pm 28.8 30.6 22.5 68 4.3 ESE 17 28 9 15 1009.0 1008.9 0.0
16/02:00pm 28.9 31.1 21.9 66 4.7 ESE 13 20 7 11 1009.2 1009.1 0.0
16/01:30pm 28.8 30.2 21.8 66 4.7 SE 17 24 9 13 1009.5 1009.4 0.0
16/01:00pm 28.6 31.0 22.3 68 4.3 SSE 13 22 7 12 1010.0 1009.9 0.0
16/12:30pm 28.1 30.1 21.6 68 4.3 SSE 13 19 7 10 1010.2 1010.1 0.0
16/12:00pm 28.3 31.0 22.1 69 4.2 SE 11 20 6 11 1010.6 1010.5 0.0
16/11:30am 27.8 30.1 22.1 71 3.8 SE 13 22 7 12 1010.9 1010.8 0.0
16/11:00am 27.5 29.9 22.2 73 3.6 SSE 13 22 7 12 1011.3 1011.2 0.0
16/10:30am 26.2 28.2 22.9 82 2.2 SSW 17 20 9 11 1011.7 1011.6 0.0
16/10:00am 26.0 27.3 22.7 82 2.2 S 20 28 11 15 1011.9 1011.8 0.0
16/09:30am 25.8 28.3 22.5 82 2.2 SSE 13 22 7 12 1012.0 1011.9 0.0
16/09:00am 26.7 29.2 22.5 78 2.8 S 13 22 7 12 1011.9 1011.8 1.0
16/08:30am 26.4 28.4 22.3 78 2.8 S 15 22 8 12 1011.7 1011.6 1.0
16/08:00am 26.0 27.9 22.7 82 2.2 SSE 17 28 9 15 1011.4 1011.3 1.0
16/07:30am 25.4 26.6 21.5 79 2.6 SE 17 32 9 17 1011.3 1011.2 1.0
16/07:00am 26.6 28.1 22.0 76 3.1 S 17 30 9 16 1011.2 1011.1 1.0
16/06:30am 26.7 28.6 22.1 76 3.1 SSE 15 24 8 13 1010.8 1010.7 1.0
16/06:00am 26.6 28.0 21.8 75 3.2 SSE 17 32 9 17 1010.5 1010.4 1.0
16/05:30am 26.5 27.9 21.9 76 3.1 S 17 24 9 13 1010.0 1009.9 1.0
16/05:00am 26.7 28.5 21.9 75 3.2 S 15 20 8 11 1009.5 1009.4 1.0
16/04:30am 26.6 28.7 22.4 78 2.8 S 15 22 8 12 1009.1 1009.0 1.0
16/04:00am 26.8 28.1 21.6 73 3.5 SSE 17 26 9 14 1009.0 1008.9 1.0
16/03:30am 26.8 28.3 22.0 75 3.2 SE 17 32 9 17 1009.1 1009.0 1.0
16/03:00am 26.9 28.3 21.9 74 3.4 SE 17 26 9 14 1009.3 1009.2 1.0
16/02:30am 27.1 27.2 21.8 73 3.5 ESE 24 39 13 21 1009.5 1009.4 1.0
16/02:00am 27.1 27.4 21.6 72 3.7 SE 22 35 12 19 1009.6 1009.5 1.0
16/01:30am 27.1 27.2 21.8 73 3.5 SE 24 39 13 21 1009.9 1009.8 1.0
16/01:00am 27.1 27.7 22.1 74 3.4 SE 22 39 12 21 1010.2 1010.1 1.0
16/12:30am 27.2 27.9 22.2 74 3.4 SE 22 35 12 19 1010.5 1010.4 1.0
16/12:00am 27.3 28.4 22.0 73 3.6 SE 19 32 10 17 1010.9 1010.8 1.0
 
Date/Time
EST
Temp
°C
App
Temp
°C
Dew
Point
°C
Rel
Hum
%
Delta-T
°C
Wind Press
QNH
hPa
Press
MSL
hPa
Rain since
9am
mm
Dir  Spd
km/h
Gust
km/h
Spd
kts
Gust
kts
15/11:30pm 27.3 28.1 21.3 69 4.0 SE 19 35 10 19 1011.2 1011.1 1.0
15/11:00pm 27.3 28.3 21.8 72 3.7 SE 19 35 10 19 1011.5 1011.4 1.0
15/10:30pm 27.4 29.1 22.4 74 3.4 ESE 17 28 9 15 1011.6 1011.5 1.0
15/10:00pm 27.4 28.8 21.9 72 3.7 SE 17 33 9 18 1011.4 1011.3 1.0
15/09:30pm 27.4 28.2 21.7 71 3.8 SE 20 35 11 19 1011.3 1011.2 1.0
15/09:00pm 27.4 28.2 21.7 71 3.8 ESE 20 32 11 17 1010.8 1010.7 1.0
15/08:30pm 27.5 28.3 21.8 71 3.8 ESE 20 41 11 22 1010.7 1010.6 1.0
15/08:00pm 27.6 27.7 21.2 68 4.3 ESE 22 35 12 19 1010.7 1010.6 1.0
15/07:30pm 27.7 28.6 22.0 71 3.8 ESE 20 33 11 18 1010.6 1010.5 1.0
15/07:00pm 27.6 28.2 22.1 72 3.7 ESE 22 33 12 18 1010.3 1010.2 1.0
15/06:30pm 27.7 28.7 22.2 72 3.7 ESE 20 37 11 20 1010.1 1010.0 1.0
15/06:00pm 28.1 27.8 21.9 69 4.2 ESE 26 41 14 22 1009.5 1009.4 1.0
15/05:30pm 28.2 29.2 22.2 70 4.0 SE 20 33 11 18 1009.3 1009.2 1.0
15/05:00pm 27.8 29.0 22.5 73 3.6 ESE 20 32 11 17 1009.1 1009.0 1.0
15/04:30pm 27.9 29.3 22.8 74 3.5 ESE 20 32 11 17 1009.0 1008.9 1.0
15/04:00pm 28.1 29.0 22.6 72 3.7 SE 22 35 12 19 1008.8 1008.7 1.0
15/03:30pm 27.8 28.8 22.1 71 3.8 ESE 20 37 11 20 1009.0 1008.9 1.0
15/03:00pm 28.2 29.2 22.9 73 3.6 SE 22 41 12 22 1009.3 1009.2 1.0
15/02:30pm 28.0 28.3 22.9 74 3.5 SE 26 39 14 21 1009.4 1009.3 1.0
15/02:00pm 27.9 28.3 22.4 72 3.7 ESE 24 39 13 21 1009.9 1009.8 1.0
15/01:30pm 27.7 29.5 23.3 77 3.0 SSE 19 32 10 17 1010.2 1010.1 1.0
15/01:00pm 27.7 29.5 23.3 77 3.0 SSE 19 37 10 20 1010.6 1010.5 1.0
15/12:30pm 27.1 29.9 23.6 81 2.4 SSE 15 24 8 13 1010.9 1010.8 1.0
15/12:00pm 26.5 26.5 21.7 75 3.2 SE 24 39 13 21 1011.1 1011.0 1.0
15/11:30am 27.7 30.8 23.5 78 2.9 S 13 19 7 10 1011.6 1011.5 1.0
15/11:00am 26.9 28.8 23.8 83 2.1 S 20 28 11 15 1011.9 1011.8 0.8
15/10:30am 26.7 29.0 23.4 82 2.3 ESE 17 28 9 15 1012.1 1012.0 0.8
15/10:00am 25.0 - - - - SE 19 32 10 17 1012.4 1012.3 0.8
15/09:30am 24.5 25.0 22.6 89 1.3 SE 24 39 13 21 1012.5 1012.4 0.4
15/09:00am 25.9 28.9 23.4 86 1.7 S 13 20 7 11 1012.3 1012.2 16.2
15/08:30am 25.5 27.0 23.0 86 1.7 S 20 32 11 17 1012.2 1012.1 16.0
15/08:00am 26.3 28.8 23.2 83 2.1 S 15 22 8 12 1012.2 1012.1 16.0
15/07:30am 25.9 - - - - SE 19 30 10 16 1011.9 1011.8 16.0
15/07:00am 24.9 26.0 22.0 84 1.9 S 19 33 10 18 1011.6 1011.5 15.4
15/06:30am 26.7 29.0 23.4 82 2.3 S 17 24 9 13 1011.3 1011.2 15.2
15/06:00am 26.4 28.2 23.5 84 2.0 S 20 30 11 16 1010.8 1010.7 15.0
15/05:30am 26.0 27.5 22.7 82 2.2 SSE 19 39 10 21 1010.3 1010.2 14.6
15/05:00am 26.9 29.3 23.6 82 2.3 S 17 22 9 12 1009.9 1009.8 13.4
15/04:30am 26.8 28.6 23.3 81 2.4 S 19 30 10 16 1009.6 1009.5 13.4
15/04:00am 27.3 28.3 22.9 77 3.0 SE 22 35 12 19 1009.2 1009.1 13.4
15/03:30am 27.4 28.5 23.0 77 3.0 SE 22 41 12 22 1009.2 1009.1 13.4
15/03:00am 27.0 27.1 23.3 80 2.5 SE 28 44 15 24 1009.3 1009.2 13.4
15/02:30am 27.3 28.3 23.5 80 2.6 SE 24 39 13 21 1009.5 1009.4 13.4
15/02:02am 27.4 27.6 23.4 79 2.7 SE 28 46 15 25 1009.7 1009.6 13.4
15/02:00am 27.4 27.2 23.4 79 2.7 SE 30 46 16 25 1009.7 1009.6 13.4
15/01:42am 27.3 27.3 23.1 78 2.9 SE 28 48 15 26 1009.6 1009.5 13.4
15/01:30am 27.5 28.1 23.5 79 2.7 SE 26 43 14 23 1009.7 1009.6 13.4
15/01:03am 27.5 27.6 23.3 78 2.9 SE 28 48 15 26 1009.7 1009.6 13.4
15/01:00am 27.5 28.0 23.3 78 2.9 SE 26 41 14 22 1009.8 1009.7 13.4
15/12:30am 27.2 28.0 23.2 79 2.7 SE 24 39 13 21 1010.0 1009.9 13.4
15/12:00am 27.7 28.2 23.3 77 3.0 SE 26 41 14 22 1010.5 1010.4 13.4
 
Date/Time
EST
Temp
°C
App
Temp
°C
Dew
Point
°C
Rel
Hum
%
Delta-T
°C
Wind Press
QNH
hPa
Press
MSL
hPa
Rain since
9am
mm
Dir  Spd
km/h
Gust
km/h
Spd
kts
Gust
kts
14/11:30pm 27.5 27.4 22.9 76 3.1 SE 28 46 15 25 1010.7 1010.6 13.4
14/11:22pm 27.7 27.7 23.1 76 3.1 ESE 28 46 15 25 1010.7 1010.6 13.4
14/11:00pm 27.7 27.7 23.1 76 3.1 SE 28 43 15 23 1010.9 1010.8 13.4
14/10:30pm 27.7 28.2 23.3 77 3.0 ESE 26 39 14 21 1011.0 1010.9 13.4
14/10:00pm 27.7 28.7 23.5 78 2.9 SE 24 39 13 21 1010.9 1010.8 13.4
14/09:30pm 27.7 28.2 22.6 74 3.5 SE 24 35 13 19 1010.7 1010.6 13.4
14/09:00pm 27.7 29.1 22.9 75 3.3 SE 20 32 11 17 1010.8 1010.7 13.4

Other Formats:

Comma delimited format used in spreadsheet applications
http://www.bom.gov.au/fwo/IDQ60801/IDQ60801.94295.axf

JavaScript Object Notation format (JSON) in row-major order
http://www.bom.gov.au/fwo/IDQ60801/IDQ60801.94295.json